createdAt,value
2019-02-04T00:03:46.970Z,99.90
2019-02-04T00:08:39.632Z,99.90
2019-02-04T00:13:32.005Z,99.90
2019-02-04T00:18:24.409Z,99.90
2019-02-04T00:23:17.185Z,99.90
2019-02-04T00:28:09.795Z,99.90
2019-02-04T00:33:02.224Z,99.90
2019-02-04T00:37:55.004Z,99.90
2019-02-04T00:42:47.477Z,99.90
2019-02-04T00:47:39.809Z,99.90
2019-02-04T00:52:32.181Z,99.90
2019-02-04T00:57:24.758Z,99.90
2019-02-04T01:02:17.385Z,99.90
2019-02-04T01:07:09.933Z,99.90
2019-02-04T01:12:02.387Z,99.90
2019-02-04T01:17:03.220Z,99.90
2019-02-04T01:21:48.733Z,99.90
2019-02-04T01:26:41.140Z,99.90
2019-02-04T01:31:33.547Z,99.90
2019-02-04T01:36:26.005Z,99.90
2019-02-04T01:41:18.928Z,99.90
2019-02-04T01:46:11.326Z,99.90
2019-02-04T01:51:03.633Z,99.90
2019-02-04T01:55:56.220Z,99.90
2019-02-04T02:00:48.882Z,99.90
2019-02-04T02:05:41.481Z,99.90
2019-02-04T02:10:33.956Z,99.90
2019-02-04T02:15:26.706Z,99.90
2019-02-04T02:20:21.440Z,99.90
2019-02-04T02:25:14.050Z,99.90
2019-02-04T02:30:09.485Z,99.90
2019-02-04T02:35:02.310Z,99.90
2019-02-04T02:39:54.776Z,99.90
2019-02-04T02:44:47.084Z,99.90
2019-02-04T02:49:39.711Z,99.90
2019-02-04T02:54:32.617Z,99.90
2019-02-04T02:59:25.054Z,99.90
2019-02-04T03:04:17.536Z,99.90
2019-02-04T03:09:10.445Z,99.90
2019-02-04T03:14:03.330Z,99.90
2019-02-04T03:18:55.816Z,99.90
2019-02-04T03:23:48.421Z,99.90
2019-02-04T03:28:41.209Z,99.90
2019-02-04T03:33:34.211Z,99.90
2019-02-04T03:38:26.754Z,99.90
2019-02-04T03:43:19.152Z,99.90
2019-02-04T03:48:11.666Z,99.90
2019-02-04T03:53:04.842Z,99.90
2019-02-04T03:57:57.485Z,99.90
2019-02-04T04:02:50.045Z,99.90
2019-02-04T04:07:42.761Z,99.90
2019-02-04T04:12:35.237Z,99.90
2019-02-04T04:17:27.864Z,99.90
2019-02-04T04:22:20.653Z,99.90
2019-02-04T04:27:13.214Z,99.90
2019-02-04T04:32:05.805Z,99.90
2019-02-04T04:36:58.500Z,99.90
2019-02-04T04:41:50.964Z,99.90
2019-02-04T04:46:43.650Z,99.90
2019-02-04T04:51:36.341Z,99.90
2019-02-04T04:56:29.032Z,99.90
2019-02-04T05:01:21.970Z,99.90
2019-02-04T05:06:14.802Z,99.90
2019-02-04T05:11:07.457Z,99.90
2019-02-04T05:16:00.025Z,99.90
2019-02-04T05:21:00.724Z,99.90
2019-02-04T05:25:53.353Z,99.90
2019-02-04T05:30:46.001Z,99.90
2019-02-04T05:35:38.581Z,99.90
2019-02-04T05:40:31.383Z,99.90
2019-02-04T05:45:23.884Z,99.90
2019-02-04T05:50:17.993Z,99.90
2019-02-04T05:55:11.272Z,99.90
2019-02-04T06:00:07.190Z,99.90
2019-02-04T06:04:59.521Z,99.90
2019-02-04T06:09:52.308Z,99.90
2019-02-04T06:14:45.175Z,99.90
2019-02-04T06:19:37.365Z,99.90
2019-02-04T06:24:29.726Z,99.90
2019-02-04T06:29:22.605Z,99.90
2019-02-04T06:34:14.958Z,99.90
2019-02-04T06:39:09.829Z,99.90
2019-02-04T06:44:02.441Z,99.90
2019-02-04T06:48:55.028Z,99.90
2019-02-04T06:53:47.645Z,99.90
2019-02-04T06:58:40.074Z,99.90
2019-02-04T07:03:32.669Z,99.90
2019-02-04T07:08:25.573Z,99.90
2019-02-04T07:13:18.125Z,99.90
2019-02-04T07:18:10.496Z,99.90
2019-02-04T07:23:03.093Z,99.90
2019-02-04T07:27:56.018Z,99.90
2019-02-04T07:32:49.376Z,99.90
2019-02-04T07:37:42.065Z,99.90
2019-02-04T07:42:34.620Z,99.90
2019-02-04T07:47:27.040Z,99.90
2019-02-04T07:52:19.395Z,99.90
2019-02-04T07:57:12.108Z,99.90
2019-02-04T08:02:04.867Z,99.90
2019-02-04T08:06:57.391Z,99.90
2019-02-04T08:11:50.098Z,99.90
2019-02-04T08:16:42.513Z,99.90
2019-02-04T08:21:35.137Z,99.90
2019-02-04T08:26:27.640Z,99.90
2019-02-04T08:31:20.307Z,99.90
2019-02-04T08:36:13.121Z,99.90
2019-02-04T08:41:05.937Z,99.90
2019-02-04T08:45:58.392Z,99.90
2019-02-04T08:50:51.111Z,99.90
2019-02-04T08:55:43.541Z,99.90
2019-02-04T09:00:36.255Z,99.90
2019-02-04T09:05:28.774Z,99.90
2019-02-04T09:10:34.816Z,99.90
2019-02-04T09:15:27.480Z,99.90
2019-02-04T09:20:19.925Z,99.90
2019-02-04T09:25:15.198Z,99.90
2019-02-04T09:30:13.484Z,99.90
2019-02-04T09:35:08.801Z,99.90
2019-02-04T09:40:01.310Z,99.90
2019-02-04T09:44:54.156Z,99.90
2019-02-04T09:49:46.471Z,99.90
2019-02-04T09:54:38.931Z,99.90
2019-02-04T09:59:31.667Z,99.90
2019-02-04T10:04:24.282Z,99.90
2019-02-04T10:09:16.856Z,99.90
2019-02-04T10:14:09.423Z,99.90
2019-02-04T10:19:02.228Z,99.90
2019-02-04T10:23:54.351Z,99.90
2019-02-04T10:28:46.679Z,99.90
2019-02-04T10:33:39.192Z,98.90
2019-02-04T10:38:31.700Z,98.30
2019-02-04T10:43:24.114Z,99.10
2019-02-04T10:48:17.095Z,99.90
2019-02-04T10:53:11.244Z,99.90
2019-02-04T10:58:04.918Z,99.90
2019-02-04T11:02:57.480Z,99.90
2019-02-04T11:07:50.220Z,99.90
2019-02-04T11:12:42.813Z,99.90
2019-02-04T11:17:35.426Z,99.90
2019-02-04T11:22:28.188Z,99.90
2019-02-04T11:27:20.916Z,99.90
2019-02-04T11:32:13.543Z,99.90
2019-02-04T11:37:06.096Z,99.90
2019-02-04T11:41:58.287Z,99.90
2019-02-04T11:46:50.892Z,99.90
2019-02-04T11:51:43.397Z,99.90
2019-02-04T11:56:35.994Z,99.90
2019-02-04T12:01:28.440Z,99.90
2019-02-04T12:06:20.966Z,99.90
2019-02-04T12:11:13.855Z,98.70
2019-02-04T12:16:06.506Z,97.70
2019-02-04T12:20:59.149Z,95.10
2019-02-04T12:25:51.514Z,95.10
2019-02-04T12:30:44.553Z,93.60
2019-02-04T12:35:37.093Z,90.40
2019-02-04T12:40:30.081Z,90.60
2019-02-04T12:45:25.774Z,93.30
2019-02-04T12:50:18.161Z,93.50
2019-02-04T12:55:16.768Z,95.20
2019-02-04T13:00:12.586Z,95.90
2019-02-04T13:05:08.241Z,96.00
2019-02-04T13:10:01.071Z,95.20
2019-02-04T13:14:53.749Z,95.80
2019-02-04T13:19:46.372Z,95.10
2019-02-04T13:24:38.741Z,96.40
2019-02-04T13:29:30.977Z,97.30
2019-02-04T13:34:23.710Z,97.40
2019-02-04T13:39:16.471Z,97.70
2019-02-04T13:44:09.145Z,96.30
2019-02-04T13:49:01.626Z,97.10
2019-02-04T13:53:57.169Z,97.30
2019-02-04T13:58:49.051Z,98.10
2019-02-04T14:03:41.656Z,98.10
2019-02-04T14:08:34.301Z,97.40
2019-02-04T14:13:27.173Z,98.00
2019-02-04T14:18:22.868Z,98.50
2019-02-04T14:23:32.985Z,98.20
2019-02-04T14:28:25.821Z,98.00
2019-02-04T14:33:18.644Z,98.20
2019-02-04T14:38:11.337Z,98.30
2019-02-04T14:43:06.680Z,98.80
2019-02-04T14:48:06.162Z,99.80
2019-02-04T14:53:04.489Z,99.90
2019-02-04T14:58:08.879Z,99.90
2019-02-04T15:03:27.132Z,99.90
2019-02-04T15:08:34.301Z,99.90
2019-02-04T15:14:03.317Z,99.90
2019-02-04T15:19:13.773Z,99.90
2019-02-04T15:24:18.149Z,99.90
2019-02-04T15:29:16.577Z,99.90
2019-02-04T15:34:18.273Z,99.90
2019-02-04T15:39:14.139Z,99.90
2019-02-04T15:44:31.197Z,99.90
2019-02-04T15:49:36.537Z,99.90
2019-02-04T15:54:29.708Z,99.90
2019-02-04T15:59:22.022Z,99.90
2019-02-04T16:04:29.224Z,99.90
2019-02-04T16:09:21.509Z,99.90
2019-02-04T16:14:13.866Z,99.90
2019-02-04T16:19:26.035Z,99.90
2019-02-04T16:24:18.445Z,99.90
2019-02-04T16:29:10.458Z,99.90
2019-02-04T16:34:03.049Z,99.90
2019-02-04T16:38:57.271Z,99.90
2019-02-04T16:43:49.662Z,99.90
2019-02-04T16:48:42.875Z,99.90
2019-02-04T16:53:35.397Z,99.90
2019-02-04T16:58:28.368Z,99.90
2019-02-04T17:03:20.896Z,99.90
2019-02-04T17:08:13.829Z,99.90
2019-02-04T17:13:06.844Z,99.90
2019-02-04T17:17:59.640Z,99.90
2019-02-04T17:22:52.172Z,99.90
2019-02-04T17:27:46.357Z,99.90
2019-02-04T17:32:39.499Z,99.90
2019-02-04T17:37:32.021Z,99.90
2019-02-04T17:42:24.869Z,99.90
2019-02-04T17:47:17.460Z,99.90
2019-02-04T17:52:10.092Z,99.90
2019-02-04T17:57:02.790Z,99.90
2019-02-04T18:01:56.439Z,99.90
2019-02-04T18:06:49.186Z,99.90
2019-02-04T18:11:42.173Z,99.90
2019-02-04T18:16:34.546Z,99.90
2019-02-04T18:21:27.237Z,99.90
2019-02-04T18:26:24.386Z,99.90
2019-02-04T18:31:18.720Z,99.90
2019-02-04T18:36:12.880Z,99.90
2019-02-04T18:41:06.315Z,99.90
2019-02-04T18:45:58.915Z,99.90
2019-02-04T18:50:51.674Z,99.90
2019-02-04T18:55:44.191Z,99.90
2019-02-04T19:00:36.966Z,99.90
2019-02-04T19:05:29.806Z,99.90
2019-02-04T19:10:25.293Z,99.90
2019-02-04T19:15:25.303Z,99.90
2019-02-04T19:20:20.382Z,99.90
2019-02-04T19:25:15.397Z,99.90
2019-02-04T19:30:13.911Z,99.90
2019-02-04T19:35:12.665Z,99.90
2019-02-04T19:40:08.396Z,99.90
2019-02-04T19:45:00.818Z,99.90
2019-02-04T19:49:53.333Z,99.90
2019-02-04T19:54:46.137Z,99.90
2019-02-04T19:59:38.487Z,99.90
2019-02-04T20:04:31.073Z,99.90
2019-02-04T20:09:25.610Z,99.90
2019-02-04T20:14:18.026Z,99.90
2019-02-04T20:19:10.270Z,99.90
2019-02-04T20:24:02.714Z,99.90
2019-02-04T20:28:55.391Z,99.90
2019-02-04T20:33:48.229Z,99.90
2019-02-04T20:38:41.127Z,99.90
2019-02-04T20:43:36.629Z,99.90
2019-02-04T20:48:29.243Z,99.90
2019-02-04T20:53:21.968Z,99.90
2019-02-04T20:58:14.639Z,99.90
2019-02-04T21:03:07.209Z,99.90
2019-02-04T21:08:00.209Z,99.90
2019-02-04T21:12:53.244Z,99.90
2019-02-04T21:18:05.137Z,99.90
2019-02-04T21:22:57.505Z,99.90
2019-02-04T21:27:50.518Z,99.90
2019-02-04T21:32:43.434Z,99.90
2019-02-04T21:37:36.213Z,99.90
2019-02-04T21:42:28.509Z,99.90
2019-02-04T21:47:24.838Z,99.90
2019-02-04T21:52:17.373Z,99.90
2019-02-04T21:57:11.273Z,99.90
2019-02-04T22:02:03.704Z,99.90
2019-02-04T22:06:56.091Z,99.90
2019-02-04T22:11:48.922Z,99.90
2019-02-04T22:16:41.926Z,99.90
2019-02-04T22:21:34.854Z,99.90
2019-02-04T22:26:28.228Z,99.90
2019-02-04T22:31:22.261Z,99.90
2019-02-04T22:36:14.961Z,99.90
2019-02-04T22:41:07.405Z,99.90
2019-02-04T22:46:00.081Z,99.90
2019-02-04T22:50:52.536Z,99.90
2019-02-04T22:55:45.175Z,99.90
2019-02-04T23:00:52.961Z,99.90
2019-02-04T23:06:04.750Z,99.90
2019-02-04T23:10:57.128Z,99.90
2019-02-04T23:15:49.820Z,99.90
2019-02-04T23:20:42.477Z,99.90
2019-02-04T23:25:42.936Z,99.90
2019-02-04T23:30:29.038Z,99.90
2019-02-04T23:35:23.828Z,99.90
2019-02-04T23:40:17.604Z,99.90
2019-02-04T23:45:11.393Z,99.90
2019-02-04T23:50:07.125Z,99.90
2019-02-04T23:54:59.970Z,99.90
2019-02-04T23:59:52.396Z,99.90
